sensor_id;sensor_type;location;lat;lon;timestamp;temperature;humidity
54576;DHT22;40472;53.486;14.542;2022-11-14T00:00:37;6.60;99.90
54576;DHT22;40472;53.486;14.542;2022-11-14T00:03:05;6.50;99.90
54576;DHT22;40472;53.486;14.542;2022-11-14T00:05:31;6.60;99.90
54576;DHT22;40472;53.486;14.542;2022-11-14T00:07:58;6.50;99.90
54576;DHT22;40472;53.486;14.542;2022-11-14T00:10:24;6.60;99.90
54576;DHT22;40472;53.486;14.542;2022-11-14T00:12:50;6.60;99.90
54576;DHT22;40472;53.486;14.542;2022-11-14T00:15:16;6.60;99.90
54576;DHT22;40472;53.486;14.542;2022-11-14T00:17:42;6.60;99.90
54576;DHT22;40472;53.486;14.542;2022-11-14T00:20:10;6.50;99.90
54576;DHT22;40472;53.486;14.542;2022-11-14T00:22:36;6.50;99.90
54576;DHT22;40472;53.486;14.542;2022-11-14T00:25:02;6.50;99.90
54576;DHT22;40472;53.486;14.542;2022-11-14T00:27:27;6.50;99.90
54576;DHT22;40472;53.486;14.542;2022-11-14T00:29:53;6.50;99.90
54576;DHT22;40472;53.486;14.542;2022-11-14T00:32:19;6.40;99.90
54576;DHT22;40472;53.486;14.542;2022-11-14T00:34:47;6.40;99.90
54576;DHT22;40472;53.486;14.542;2022-11-14T00:37:13;6.40;99.90
54576;DHT22;40472;53.486;14.542;2022-11-14T00:39:39;6.40;99.90
54576;DHT22;40472;53.486;14.542;2022-11-14T00:42:05;6.40;99.90
54576;DHT22;40472;53.486;14.542;2022-11-14T00:44:31;6.50;99.90
54576;DHT22;40472;53.486;14.542;2022-11-14T00:46:56;6.50;99.90
54576;DHT22;40472;53.486;14.542;2022-11-14T00:49:22;6.50;99.90
54576;DHT22;40472;53.486;14.542;2022-11-14T00:51:48;6.50;99.90
54576;DHT22;40472;53.486;14.542;2022-11-14T00:54:14;6.50;99.90
54576;DHT22;40472;53.486;14.542;2022-11-14T00:56:39;6.40;99.90
54576;DHT22;40472;53.486;14.542;2022-11-14T00:59:05;6.40;99.90
54576;DHT22;40472;53.486;14.542;2022-11-14T01:01:31;6.30;99.90
54576;DHT22;40472;53.486;14.542;2022-11-14T01:03:58;6.30;99.90
54576;DHT22;40472;53.486;14.542;2022-11-14T01:06:24;6.40;99.90
54576;DHT22;40472;53.486;14.542;2022-11-14T01:08:50;6.30;99.90
54576;DHT22;40472;53.486;14.542;2022-11-14T01:11:19;6.30;99.90
54576;DHT22;40472;53.486;14.542;2022-11-14T01:13:45;6.20;99.90
54576;DHT22;40472;53.486;14.542;2022-11-14T01:16:11;6.30;99.90
54576;DHT22;40472;53.486;14.542;2022-11-14T01:18:38;6.30;99.90
54576;DHT22;40472;53.486;14.542;2022-11-14T01:21:09;6.30;99.90
54576;DHT22;40472;53.486;14.542;2022-11-14T01:23:37;6.40;99.90
54576;DHT22;40472;53.486;14.542;2022-11-14T01:26:07;6.40;99.90
54576;DHT22;40472;53.486;14.542;2022-11-14T01:28:34;6.30;99.90
54576;DHT22;40472;53.486;14.542;2022-11-14T01:31:26;6.40;99.90
54576;DHT22;40472;53.486;14.542;2022-11-14T01:33:52;6.30;99.90
54576;DHT22;40472;53.486;14.542;2022-11-14T01:36:22;6.40;99.90
54576;DHT22;40472;53.486;14.542;2022-11-14T01:38:52;6.30;99.90
54576;DHT22;40472;53.486;14.542;2022-11-14T01:41:20;6.30;99.90
54576;DHT22;40472;53.486;14.542;2022-11-14T01:43:47;6.30;99.90
54576;DHT22;40472;53.486;14.542;2022-11-14T01:51:23;6.30;99.90
54576;DHT22;40472;53.486;14.542;2022-11-14T01:53:54;6.40;99.90
54576;DHT22;40472;53.486;14.542;2022-11-14T01:56:25;6.40;99.90
54576;DHT22;40472;53.486;14.542;2022-11-14T01:58:58;6.40;99.90
54576;DHT22;40472;53.486;14.542;2022-11-14T02:01:26;6.50;99.90
54576;DHT22;40472;53.486;14.542;2022-11-14T02:03:53;6.40;99.90
54576;DHT22;40472;53.486;14.542;2022-11-14T02:06:22;6.40;99.90
54576;DHT22;40472;53.486;14.542;2022-11-14T02:08:50;6.30;99.90
54576;DHT22;40472;53.486;14.542;2022-11-14T02:11:16;6.40;99.90
54576;DHT22;40472;53.486;14.542;2022-11-14T02:13:42;6.40;99.90
54576;DHT22;40472;53.486;14.542;2022-11-14T02:16:07;6.40;99.90
54576;DHT22;40472;53.486;14.542;2022-11-14T02:18:36;6.40;99.90
54576;DHT22;40472;53.486;14.542;2022-11-14T02:21:02;6.40;99.90
54576;DHT22;40472;53.486;14.542;2022-11-14T02:23:30;6.60;99.90
54576;DHT22;40472;53.486;14.542;2022-11-14T02:25:57;6.40;99.90
54576;DHT22;40472;53.486;14.542;2022-11-14T02:28:23;6.50;99.90
54576;DHT22;40472;53.486;14.542;2022-11-14T02:30:49;6.40;99.90
54576;DHT22;40472;53.486;14.542;2022-11-14T02:33:14;6.40;99.90
54576;DHT22;40472;53.486;14.542;2022-11-14T02:35:41;6.40;99.90
54576;DHT22;40472;53.486;14.542;2022-11-14T02:38:07;6.40;99.90
54576;DHT22;40472;53.486;14.542;2022-11-14T02:40:32;6.40;99.90
54576;DHT22;40472;53.486;14.542;2022-11-14T02:42:58;6.40;99.90
54576;DHT22;40472;53.486;14.542;2022-11-14T02:45:24;6.50;99.90
54576;DHT22;40472;53.486;14.542;2022-11-14T02:47:50;6.40;99.90
54576;DHT22;40472;53.486;14.542;2022-11-14T02:50:16;6.40;99.90
54576;DHT22;40472;53.486;14.542;2022-11-14T02:52:42;6.40;99.90
54576;DHT22;40472;53.486;14.542;2022-11-14T02:55:08;6.40;99.90
54576;DHT22;40472;53.486;14.542;2022-11-14T02:57:34;6.50;99.90
54576;DHT22;40472;53.486;14.542;2022-11-14T03:00:00;6.50;99.90
54576;DHT22;40472;53.486;14.542;2022-11-14T03:02:26;6.50;99.90
54576;DHT22;40472;53.486;14.542;2022-11-14T03:04:52;6.40;99.90
54576;DHT22;40472;53.486;14.542;2022-11-14T03:07:18;6.30;99.90
54576;DHT22;40472;53.486;14.542;2022-11-14T03:09:43;6.30;99.90
54576;DHT22;40472;53.486;14.542;2022-11-14T03:12:09;6.20;99.90
54576;DHT22;40472;53.486;14.542;2022-11-14T03:14:35;6.30;99.90
54576;DHT22;40472;53.486;14.542;2022-11-14T03:17:01;6.20;99.90
54576;DHT22;40472;53.486;14.542;2022-11-14T03:19:26;6.30;99.90
54576;DHT22;40472;53.486;14.542;2022-11-14T03:21:52;6.40;99.90
54576;DHT22;40472;53.486;14.542;2022-11-14T03:24:18;6.40;99.90
54576;DHT22;40472;53.486;14.542;2022-11-14T03:26:44;6.50;99.90
54576;DHT22;40472;53.486;14.542;2022-11-14T03:29:09;6.40;99.90
54576;DHT22;40472;53.486;14.542;2022-11-14T03:31:35;6.30;99.90
54576;DHT22;40472;53.486;14.542;2022-11-14T03:34:01;6.40;99.90
54576;DHT22;40472;53.486;14.542;2022-11-14T03:36:26;6.40;99.90
54576;DHT22;40472;53.486;14.542;2022-11-14T03:38:53;6.40;99.90
54576;DHT22;40472;53.486;14.542;2022-11-14T03:41:19;6.50;99.90
54576;DHT22;40472;53.486;14.542;2022-11-14T03:43:45;6.40;99.90
54576;DHT22;40472;53.486;14.542;2022-11-14T03:46:10;6.40;99.90
54576;DHT22;40472;53.486;14.542;2022-11-14T03:48:36;6.40;99.90
54576;DHT22;40472;53.486;14.542;2022-11-14T03:51:02;6.40;99.90
54576;DHT22;40472;53.486;14.542;2022-11-14T03:53:27;6.50;99.90
54576;DHT22;40472;53.486;14.542;2022-11-14T03:55:54;6.40;99.90
54576;DHT22;40472;53.486;14.542;2022-11-14T03:58:20;6.40;99.90
54576;DHT22;40472;53.486;14.542;2022-11-14T04:00:45;6.50;99.90
54576;DHT22;40472;53.486;14.542;2022-11-14T04:03:11;6.50;99.90
54576;DHT22;40472;53.486;14.542;2022-11-14T04:05:37;6.50;99.90
54576;DHT22;40472;53.486;14.542;2022-11-14T04:08:06;6.50;99.90
54576;DHT22;40472;53.486;14.542;2022-11-14T04:10:32;6.40;99.90
54576;DHT22;40472;53.486;14.542;2022-11-14T04:12:57;6.40;99.90
54576;DHT22;40472;53.486;14.542;2022-11-14T04:15:23;6.50;99.90
54576;DHT22;40472;53.486;14.542;2022-11-14T04:17:49;6.40;99.90
54576;DHT22;40472;53.486;14.542;2022-11-14T04:20:15;6.30;99.90
54576;DHT22;40472;53.486;14.542;2022-11-14T04:22:41;6.30;99.90
54576;DHT22;40472;53.486;14.542;2022-11-14T04:25:07;6.30;99.90
54576;DHT22;40472;53.486;14.542;2022-11-14T04:27:33;6.30;99.90
54576;DHT22;40472;53.486;14.542;2022-11-14T04:29:59;6.30;99.90
54576;DHT22;40472;53.486;14.542;2022-11-14T04:32:25;6.20;99.90
54576;DHT22;40472;53.486;14.542;2022-11-14T04:34:50;6.20;99.90
54576;DHT22;40472;53.486;14.542;2022-11-14T04:37:16;6.20;99.90
54576;DHT22;40472;53.486;14.542;2022-11-14T04:39:42;6.20;99.90
54576;DHT22;40472;53.486;14.542;2022-11-14T04:42:08;6.20;99.90
54576;DHT22;40472;53.486;14.542;2022-11-14T04:44:33;6.20;99.90
54576;DHT22;40472;53.486;14.542;2022-11-14T04:46:59;6.20;99.90
54576;DHT22;40472;53.486;14.542;2022-11-14T04:49:25;6.10;99.90
54576;DHT22;40472;53.486;14.542;2022-11-14T04:51:50;6.10;99.90
54576;DHT22;40472;53.486;14.542;2022-11-14T04:54:16;6.10;99.90
54576;DHT22;40472;53.486;14.542;2022-11-14T04:56:42;6.10;99.90
54576;DHT22;40472;53.486;14.542;2022-11-14T04:59:07;6.10;99.90
54576;DHT22;40472;53.486;14.542;2022-11-14T05:01:33;6.20;99.90
54576;DHT22;40472;53.486;14.542;2022-11-14T05:03:59;6.20;99.90
54576;DHT22;40472;53.486;14.542;2022-11-14T05:06:25;6.20;99.90
54576;DHT22;40472;53.486;14.542;2022-11-14T05:08:51;6.20;99.90
54576;DHT22;40472;53.486;14.542;2022-11-14T05:11:18;6.20;99.90
54576;DHT22;40472;53.486;14.542;2022-11-14T05:13:44;6.30;99.90
54576;DHT22;40472;53.486;14.542;2022-11-14T05:16:10;6.20;99.90
54576;DHT22;40472;53.486;14.542;2022-11-14T05:18:36;6.20;99.90
54576;DHT22;40472;53.486;14.542;2022-11-14T05:21:02;6.20;99.90
54576;DHT22;40472;53.486;14.542;2022-11-14T05:23:28;6.20;99.90
54576;DHT22;40472;53.486;14.542;2022-11-14T05:26:08;6.10;99.90
54576;DHT22;40472;53.486;14.542;2022-11-14T05:28:34;6.10;99.90
54576;DHT22;40472;53.486;14.542;2022-11-14T05:31:01;6.10;99.90
54576;DHT22;40472;53.486;14.542;2022-11-14T05:33:28;6.10;99.90
54576;DHT22;40472;53.486;14.542;2022-11-14T05:35:54;6.20;99.90
54576;DHT22;40472;53.486;14.542;2022-11-14T05:38:19;6.20;99.90
54576;DHT22;40472;53.486;14.542;2022-11-14T05:40:45;6.30;99.90
54576;DHT22;40472;53.486;14.542;2022-11-14T05:43:11;6.30;99.90
54576;DHT22;40472;53.486;14.542;2022-11-14T05:45:36;6.20;99.90
54576;DHT22;40472;53.486;14.542;2022-11-14T05:48:02;6.20;99.90
54576;DHT22;40472;53.486;14.542;2022-11-14T05:50:28;6.20;99.90
54576;DHT22;40472;53.486;14.542;2022-11-14T05:52:55;6.20;99.90
54576;DHT22;40472;53.486;14.542;2022-11-14T05:55:21;6.10;99.90
54576;DHT22;40472;53.486;14.542;2022-11-14T05:57:47;6.10;99.90
54576;DHT22;40472;53.486;14.542;2022-11-14T06:00:13;6.10;99.90
54576;DHT22;40472;53.486;14.542;2022-11-14T06:02:39;6.20;99.90
54576;DHT22;40472;53.486;14.542;2022-11-14T06:05:05;6.30;99.90
54576;DHT22;40472;53.486;14.542;2022-11-14T06:07:31;6.30;99.90
54576;DHT22;40472;53.486;14.542;2022-11-14T06:09:56;6.20;99.90
54576;DHT22;40472;53.486;14.542;2022-11-14T06:12:22;6.30;99.90
54576;DHT22;40472;53.486;14.542;2022-11-14T06:14:48;6.20;99.90
54576;DHT22;40472;53.486;14.542;2022-11-14T06:17:14;6.20;99.90
54576;DHT22;40472;53.486;14.542;2022-11-14T06:19:39;6.20;99.90
54576;DHT22;40472;53.486;14.542;2022-11-14T06:22:05;6.20;99.90
54576;DHT22;40472;53.486;14.542;2022-11-14T06:24:33;6.10;99.90
54576;DHT22;40472;53.486;14.542;2022-11-14T06:26:59;6.10;99.90
54576;DHT22;40472;53.486;14.542;2022-11-14T06:29:26;6.10;99.90
54576;DHT22;40472;53.486;14.542;2022-11-14T06:31:53;6.20;99.90
54576;DHT22;40472;53.486;14.542;2022-11-14T06:34:21;6.30;99.90
54576;DHT22;40472;53.486;14.542;2022-11-14T06:36:47;6.20;99.90
54576;DHT22;40472;53.486;14.542;2022-11-14T06:39:12;6.20;99.90
54576;DHT22;40472;53.486;14.542;2022-11-14T06:41:38;6.20;99.90
54576;DHT22;40472;53.486;14.542;2022-11-14T06:44:07;6.20;99.90
54576;DHT22;40472;53.486;14.542;2022-11-14T06:46:33;6.30;99.90
54576;DHT22;40472;53.486;14.542;2022-11-14T06:48:59;6.20;99.90
54576;DHT22;40472;53.486;14.542;2022-11-14T06:51:25;6.20;99.90
54576;DHT22;40472;53.486;14.542;2022-11-14T06:53:54;6.30;99.90
54576;DHT22;40472;53.486;14.542;2022-11-14T06:56:22;6.30;99.90
54576;DHT22;40472;53.486;14.542;2022-11-14T06:58:48;6.40;99.90
54576;DHT22;40472;53.486;14.542;2022-11-14T07:01:26;6.40;99.90
54576;DHT22;40472;53.486;14.542;2022-11-14T07:04:00;6.40;99.90
54576;DHT22;40472;53.486;14.542;2022-11-14T07:06:37;6.50;99.90
54576;DHT22;40472;53.486;14.542;2022-11-14T07:09:08;6.50;99.90
54576;DHT22;40472;53.486;14.542;2022-11-14T07:11:34;6.40;99.90
54576;DHT22;40472;53.486;14.542;2022-11-14T07:14:02;6.40;99.90
54576;DHT22;40472;53.486;14.542;2022-11-14T07:16:33;6.40;99.90
54576;DHT22;40472;53.486;14.542;2022-11-14T07:19:01;6.40;99.90
54576;DHT22;40472;53.486;14.542;2022-11-14T07:21:28;6.40;99.90
54576;DHT22;40472;53.486;14.542;2022-11-14T07:23:55;6.50;99.90
54576;DHT22;40472;53.486;14.542;2022-11-14T07:26:22;6.50;99.90
54576;DHT22;40472;53.486;14.542;2022-11-14T07:28:48;6.50;99.90
54576;DHT22;40472;53.486;14.542;2022-11-14T07:31:15;6.50;99.90
54576;DHT22;40472;53.486;14.542;2022-11-14T07:33:42;6.50;99.90
54576;DHT22;40472;53.486;14.542;2022-11-14T07:36:09;6.60;99.90
54576;DHT22;40472;53.486;14.542;2022-11-14T07:38:36;6.60;99.90
54576;DHT22;40472;53.486;14.542;2022-11-14T07:41:08;6.60;99.90
54576;DHT22;40472;53.486;14.542;2022-11-14T07:43:34;6.60;99.90
54576;DHT22;40472;53.486;14.542;2022-11-14T07:46:04;6.70;99.90
54576;DHT22;40472;53.486;14.542;2022-11-14T07:48:31;6.70;99.90
54576;DHT22;40472;53.486;14.542;2022-11-14T07:50:58;6.70;99.90
54576;DHT22;40472;53.486;14.542;2022-11-14T07:53:26;6.70;99.90
54576;DHT22;40472;53.486;14.542;2022-11-14T07:55:54;6.70;99.90
54576;DHT22;40472;53.486;14.542;2022-11-14T07:58:20;6.80;99.90
54576;DHT22;40472;53.486;14.542;2022-11-14T08:00:46;6.90;99.90
54576;DHT22;40472;53.486;14.542;2022-11-14T08:03:12;6.80;99.90
54576;DHT22;40472;53.486;14.542;2022-11-14T08:05:41;6.70;99.90
54576;DHT22;40472;53.486;14.542;2022-11-14T08:08:09;6.70;99.90
54576;DHT22;40472;53.486;14.542;2022-11-14T08:10:35;6.90;99.90
54576;DHT22;40472;53.486;14.542;2022-11-14T08:13:04;6.90;99.90
54576;DHT22;40472;53.486;14.542;2022-11-14T08:15:30;6.90;99.90
54576;DHT22;40472;53.486;14.542;2022-11-14T08:18:00;6.90;99.90
54576;DHT22;40472;53.486;14.542;2022-11-14T08:20:26;7.00;99.90
54576;DHT22;40472;53.486;14.542;2022-11-14T08:23:03;7.10;99.90
54576;DHT22;40472;53.486;14.542;2022-11-14T08:25:29;7.20;99.90
54576;DHT22;40472;53.486;14.542;2022-11-14T08:27:55;7.10;99.90
54576;DHT22;40472;53.486;14.542;2022-11-14T08:30:21;7.20;99.90
54576;DHT22;40472;53.486;14.542;2022-11-14T08:32:46;7.10;99.90
54576;DHT22;40472;53.486;14.542;2022-11-14T08:35:12;7.20;99.90
54576;DHT22;40472;53.486;14.542;2022-11-14T08:37:40;7.20;99.90
54576;DHT22;40472;53.486;14.542;2022-11-14T08:40:06;7.30;99.90
54576;DHT22;40472;53.486;14.542;2022-11-14T08:42:32;7.40;99.90
54576;DHT22;40472;53.486;14.542;2022-11-14T08:44:59;7.40;99.90
54576;DHT22;40472;53.486;14.542;2022-11-14T08:47:25;7.50;99.90
54576;DHT22;40472;53.486;14.542;2022-11-14T08:49:50;7.60;99.90
54576;DHT22;40472;53.486;14.542;2022-11-14T08:52:16;7.70;99.90
54576;DHT22;40472;53.486;14.542;2022-11-14T08:54:42;7.70;99.90
54576;DHT22;40472;53.486;14.542;2022-11-14T08:57:07;7.80;99.90
54576;DHT22;40472;53.486;14.542;2022-11-14T08:59:36;7.70;99.90
54576;DHT22;40472;53.486;14.542;2022-11-14T09:02:02;7.70;99.90
54576;DHT22;40472;53.486;14.542;2022-11-14T09:04:28;7.80;99.90
54576;DHT22;40472;53.486;14.542;2022-11-14T09:06:56;7.70;99.90
54576;DHT22;40472;53.486;14.542;2022-11-14T09:09:23;7.70;99.90
54576;DHT22;40472;53.486;14.542;2022-11-14T09:11:49;7.60;99.90
54576;DHT22;40472;53.486;14.542;2022-11-14T09:14:14;7.60;99.90
54576;DHT22;40472;53.486;14.542;2022-11-14T09:16:43;7.60;99.90
54576;DHT22;40472;53.486;14.542;2022-11-14T09:19:08;7.70;99.90
54576;DHT22;40472;53.486;14.542;2022-11-14T09:21:34;8.00;99.90
54576;DHT22;40472;53.486;14.542;2022-11-14T09:24:00;8.00;99.90
54576;DHT22;40472;53.486;14.542;2022-11-14T09:26:26;8.00;99.90
54576;DHT22;40472;53.486;14.542;2022-11-14T09:28:51;8.00;99.90
54576;DHT22;40472;53.486;14.542;2022-11-14T09:31:17;8.10;99.90
54576;DHT22;40472;53.486;14.542;2022-11-14T09:33:43;8.10;99.90
54576;DHT22;40472;53.486;14.542;2022-11-14T09:36:11;8.20;99.90
54576;DHT22;40472;53.486;14.542;2022-11-14T09:38:41;8.20;99.90
54576;DHT22;40472;53.486;14.542;2022-11-14T09:46:41;8.20;99.90
54576;DHT22;40472;53.486;14.542;2022-11-14T09:49:22;8.30;99.90
54576;DHT22;40472;53.486;14.542;2022-11-14T09:51:53;8.20;99.90
54576;DHT22;40472;53.486;14.542;2022-11-14T09:54:27;8.10;99.90
54576;DHT22;40472;53.486;14.542;2022-11-14T09:56:59;8.20;99.90
54576;DHT22;40472;53.486;14.542;2022-11-14T09:59:25;8.30;99.90
54576;DHT22;40472;53.486;14.542;2022-11-14T10:13:01;8.30;99.90
54576;DHT22;40472;53.486;14.542;2022-11-14T10:15:41;8.40;99.90
54576;DHT22;40472;53.486;14.542;2022-11-14T10:18:38;8.30;99.90
54576;DHT22;40472;53.486;14.542;2022-11-14T10:26:56;8.10;99.90
54576;DHT22;40472;53.486;14.542;2022-11-14T10:30:24;8.30;99.90
54576;DHT22;40472;53.486;14.542;2022-11-14T10:35:13;8.40;99.90
54576;DHT22;40472;53.486;14.542;2022-11-14T10:38:15;8.20;99.90
54576;DHT22;40472;53.486;14.542;2022-11-14T10:40:48;8.30;99.90
54576;DHT22;40472;53.486;14.542;2022-11-14T10:48:48;8.10;99.90
54576;DHT22;40472;53.486;14.542;2022-11-14T10:51:38;8.30;99.90
54576;DHT22;40472;53.486;14.542;2022-11-14T10:54:22;8.30;99.90
54576;DHT22;40472;53.486;14.542;2022-11-14T10:56:51;8.40;99.90
54576;DHT22;40472;53.486;14.542;2022-11-14T10:59:18;8.30;99.90
54576;DHT22;40472;53.486;14.542;2022-11-14T11:01:55;8.20;99.90
54576;DHT22;40472;53.486;14.542;2022-11-14T11:04:33;8.30;99.90
54576;DHT22;40472;53.486;14.542;2022-11-14T11:09:37;8.40;99.90
54576;DHT22;40472;53.486;14.542;2022-11-14T11:12:37;8.40;99.90
54576;DHT22;40472;53.486;14.542;2022-11-14T11:15:19;8.60;99.90
54576;DHT22;40472;53.486;14.542;2022-11-14T11:17:57;8.30;99.90
54576;DHT22;40472;53.486;14.542;2022-11-14T11:20:40;8.40;99.90
54576;DHT22;40472;53.486;14.542;2022-11-14T11:25:36;8.20;99.90
54576;DHT22;40472;53.486;14.542;2022-11-14T11:28:23;8.30;99.90
54576;DHT22;40472;53.486;14.542;2022-11-14T11:30:59;8.20;99.90
54576;DHT22;40472;53.486;14.542;2022-11-14T11:33:29;8.30;99.90
54576;DHT22;40472;53.486;14.542;2022-11-14T11:36:13;8.50;99.90
54576;DHT22;40472;53.486;14.542;2022-11-14T11:38:40;8.40;99.90
54576;DHT22;40472;53.486;14.542;2022-11-14T11:41:32;8.50;99.90
54576;DHT22;40472;53.486;14.542;2022-11-14T11:44:03;8.40;99.90
54576;DHT22;40472;53.486;14.542;2022-11-14T11:46:52;8.40;99.90
54576;DHT22;40472;53.486;14.542;2022-11-14T11:51:55;8.30;99.90
54576;DHT22;40472;53.486;14.542;2022-11-14T11:54:29;8.10;99.90
54576;DHT22;40472;53.486;14.542;2022-11-14T11:56:59;8.20;99.90
54576;DHT22;40472;53.486;14.542;2022-11-14T11:59:34;8.40;99.90
54576;DHT22;40472;53.486;14.542;2022-11-14T12:02:12;8.30;99.90
54576;DHT22;40472;53.486;14.542;2022-11-14T12:04:41;8.30;99.90
54576;DHT22;40472;53.486;14.542;2022-11-14T12:10:16;8.40;99.90
54576;DHT22;40472;53.486;14.542;2022-11-14T12:18:20;8.20;99.90
54576;DHT22;40472;53.486;14.542;2022-11-14T12:23:46;8.10;99.90
54576;DHT22;40472;53.486;14.542;2022-11-14T12:29:54;8.10;99.90
54576;DHT22;40472;53.486;14.542;2022-11-14T12:33:03;8.10;99.90
54576;DHT22;40472;53.486;14.542;2022-11-14T12:35:28;8.00;99.90
54576;DHT22;40472;53.486;14.542;2022-11-14T12:37:56;7.90;99.90
54576;DHT22;40472;53.486;14.542;2022-11-14T12:40:32;7.90;99.90
54576;DHT22;40472;53.486;14.542;2022-11-14T12:43:00;7.90;99.90
54576;DHT22;40472;53.486;14.542;2022-11-14T12:50:43;7.80;99.90
54576;DHT22;40472;53.486;14.542;2022-11-14T13:11:53;7.80;99.90
54576;DHT22;40472;53.486;14.542;2022-11-14T13:15:28;7.90;99.90
54576;DHT22;40472;53.486;14.542;2022-11-14T13:21:22;7.90;99.90
54576;DHT22;40472;53.486;14.542;2022-11-14T13:24:07;7.70;99.90
54576;DHT22;40472;53.486;14.542;2022-11-14T13:28:59;7.60;99.90
54576;DHT22;40472;53.486;14.542;2022-11-14T13:31:44;7.80;99.90
54576;DHT22;40472;53.486;14.542;2022-11-14T13:34:35;7.80;99.90
54576;DHT22;40472;53.486;14.542;2022-11-14T13:39:58;7.60;99.90
54576;DHT22;40472;53.486;14.542;2022-11-14T13:51:17;7.50;99.90
54576;DHT22;40472;53.486;14.542;2022-11-14T13:53:43;7.50;99.90
54576;DHT22;40472;53.486;14.542;2022-11-14T14:09:53;7.40;99.90
54576;DHT22;40472;53.486;14.542;2022-11-14T14:18:32;7.20;99.90
54576;DHT22;40472;53.486;14.542;2022-11-14T14:24:29;7.20;99.90
54576;DHT22;40472;53.486;14.542;2022-11-14T14:27:33;7.20;99.90
54576;DHT22;40472;53.486;14.542;2022-11-14T14:30:16;7.20;99.90
54576;DHT22;40472;53.486;14.542;2022-11-14T14:32:43;7.20;99.90
54576;DHT22;40472;53.486;14.542;2022-11-14T14:35:29;7.10;99.90
54576;DHT22;40472;53.486;14.542;2022-11-14T14:37:57;7.00;99.90
54576;DHT22;40472;53.486;14.542;2022-11-14T14:40:25;7.00;99.90
54576;DHT22;40472;53.486;14.542;2022-11-14T14:42:52;7.00;99.90
54576;DHT22;40472;53.486;14.542;2022-11-14T14:45:20;6.90;99.90
54576;DHT22;40472;53.486;14.542;2022-11-14T14:48:11;6.90;99.90
54576;DHT22;40472;53.486;14.542;2022-11-14T14:50:41;6.90;99.90
54576;DHT22;40472;53.486;14.542;2022-11-14T14:53:27;6.80;99.90
54576;DHT22;40472;53.486;14.542;2022-11-14T14:56:06;6.70;99.90
54576;DHT22;40472;53.486;14.542;2022-11-14T14:58:34;6.70;99.90
54576;DHT22;40472;53.486;14.542;2022-11-14T15:03:41;6.60;99.90
54576;DHT22;40472;53.486;14.542;2022-11-14T15:06:37;6.50;99.90
54576;DHT22;40472;53.486;14.542;2022-11-14T15:11:43;6.50;99.90
54576;DHT22;40472;53.486;14.542;2022-11-14T15:14:17;6.40;99.90
54576;DHT22;40472;53.486;14.542;2022-11-14T15:16:45;6.40;99.90
54576;DHT22;40472;53.486;14.542;2022-11-14T15:19:15;6.40;99.90
54576;DHT22;40472;53.486;14.542;2022-11-14T15:21:41;6.30;99.90
54576;DHT22;40472;53.486;14.542;2022-11-14T15:24:19;6.40;99.90
54576;DHT22;40472;53.486;14.542;2022-11-14T15:26:50;6.40;99.90
54576;DHT22;40472;53.486;14.542;2022-11-14T15:29:18;6.50;99.90
54576;DHT22;40472;53.486;14.542;2022-11-14T15:31:51;6.50;99.90
54576;DHT22;40472;53.486;14.542;2022-11-14T15:34:28;6.60;99.90
54576;DHT22;40472;53.486;14.542;2022-11-14T15:39:35;6.70;99.90
54576;DHT22;40472;53.486;14.542;2022-11-14T15:44:59;6.70;99.90
54576;DHT22;40472;53.486;14.542;2022-11-14T15:47:33;6.70;99.90
54576;DHT22;40472;53.486;14.542;2022-11-14T15:50:02;6.70;99.90
54576;DHT22;40472;53.486;14.542;2022-11-14T15:52:52;6.70;99.90
54576;DHT22;40472;53.486;14.542;2022-11-14T15:55:21;6.70;99.90
54576;DHT22;40472;53.486;14.542;2022-11-14T15:58:13;6.60;99.90
54576;DHT22;40472;53.486;14.542;2022-11-14T16:00:53;6.70;99.90
54576;DHT22;40472;53.486;14.542;2022-11-14T16:03:25;6.60;99.90
54576;DHT22;40472;53.486;14.542;2022-11-14T16:05:54;6.70;99.90
54576;DHT22;40472;53.486;14.542;2022-11-14T16:08:19;6.70;99.90
54576;DHT22;40472;53.486;14.542;2022-11-14T16:10:47;6.70;99.90
54576;DHT22;40472;53.486;14.542;2022-11-14T16:13:15;6.70;99.90
54576;DHT22;40472;53.486;14.542;2022-11-14T16:15:41;6.60;99.90
54576;DHT22;40472;53.486;14.542;2022-11-14T16:18:07;6.60;99.90
54576;DHT22;40472;53.486;14.542;2022-11-14T16:20:33;6.60;99.90
54576;DHT22;40472;53.486;14.542;2022-11-14T16:23:06;6.60;99.90
54576;DHT22;40472;53.486;14.542;2022-11-14T16:25:35;6.70;99.90
54576;DHT22;40472;53.486;14.542;2022-11-14T16:28:01;6.70;99.90
54576;DHT22;40472;53.486;14.542;2022-11-14T16:30:27;6.60;99.90
54576;DHT22;40472;53.486;14.542;2022-11-14T16:32:53;6.60;99.90
54576;DHT22;40472;53.486;14.542;2022-11-14T16:35:24;6.60;99.90
54576;DHT22;40472;53.486;14.542;2022-11-14T16:37:50;6.60;99.90
54576;DHT22;40472;53.486;14.542;2022-11-14T16:40:22;6.60;99.90
54576;DHT22;40472;53.486;14.542;2022-11-14T16:42:57;6.50;99.90
54576;DHT22;40472;53.486;14.542;2022-11-14T16:45:24;6.60;99.90
54576;DHT22;40472;53.486;14.542;2022-11-14T16:47:51;6.50;99.90
54576;DHT22;40472;53.486;14.542;2022-11-14T16:50:20;6.50;99.90
54576;DHT22;40472;53.486;14.542;2022-11-14T16:52:46;6.60;99.90
54576;DHT22;40472;53.486;14.542;2022-11-14T16:55:12;6.60;99.90
54576;DHT22;40472;53.486;14.542;2022-11-14T16:57:38;6.60;99.90
54576;DHT22;40472;53.486;14.542;2022-11-14T17:00:07;6.50;99.90
54576;DHT22;40472;53.486;14.542;2022-11-14T17:02:33;6.50;99.90
54576;DHT22;40472;53.486;14.542;2022-11-14T17:04:59;6.60;99.90
54576;DHT22;40472;53.486;14.542;2022-11-14T17:07:25;6.60;99.90
54576;DHT22;40472;53.486;14.542;2022-11-14T17:09:55;6.60;99.90
54576;DHT22;40472;53.486;14.542;2022-11-14T17:12:20;6.50;99.90
54576;DHT22;40472;53.486;14.542;2022-11-14T17:14:46;6.60;99.90
54576;DHT22;40472;53.486;14.542;2022-11-14T17:17:12;6.50;99.90
54576;DHT22;40472;53.486;14.542;2022-11-14T17:19:38;6.50;99.90
54576;DHT22;40472;53.486;14.542;2022-11-14T17:22:11;6.50;99.90
54576;DHT22;40472;53.486;14.542;2022-11-14T17:24:38;6.50;99.90
54576;DHT22;40472;53.486;14.542;2022-11-14T17:27:04;6.50;99.90
54576;DHT22;40472;53.486;14.542;2022-11-14T17:29:30;6.40;99.90
54576;DHT22;40472;53.486;14.542;2022-11-14T17:31:55;6.40;99.90
54576;DHT22;40472;53.486;14.542;2022-11-14T17:34:21;6.40;99.90
54576;DHT22;40472;53.486;14.542;2022-11-14T17:36:47;6.30;99.90
54576;DHT22;40472;53.486;14.542;2022-11-14T17:39:13;6.40;99.90
54576;DHT22;40472;53.486;14.542;2022-11-14T17:41:39;6.30;99.90
54576;DHT22;40472;53.486;14.542;2022-11-14T17:44:05;6.40;99.90
54576;DHT22;40472;53.486;14.542;2022-11-14T17:46:31;6.50;99.90
54576;DHT22;40472;53.486;14.542;2022-11-14T17:48:57;6.50;99.90
54576;DHT22;40472;53.486;14.542;2022-11-14T17:51:23;6.40;99.90
54576;DHT22;40472;53.486;14.542;2022-11-14T17:53:50;6.50;99.90
54576;DHT22;40472;53.486;14.542;2022-11-14T17:56:22;6.40;99.90